Rockeagle, Wyoming
Current Conditions -  °F | °C
As of 1:53 PM on Saturday 25 Oct 2014 (Local Time) from KTOR Reporting Station
Clear Clear  
Wind Chill: 76°   Ceiling: Unl
Heat Index: 76°   Visibility: 10mi
Dew Point: 34°   Wind: 8mph
Humidity: 22%   Direction: 130°SE
Pressure: 30.04"   Gusts: NA
Location:  42.1479°N, 104.31°W
Report Text: KTOR 251953Z AUTO 13007KT 10SM CLR 24/01 A3004 RMK AO2 SLP144 T02440011
Loading
Personal Weather Stations






























Interactive Weather Map
Tropical Storm Tracking
New forecast layout! Learn more

10-Day Weather Forecast

Advertisements
Track Severe Weather on mobile